Aérodrome :
LOGIN :

S'inscrire | Disclaimer

   EN    FR    IT 

 










Légende :    VFR   VFR Marginal   IFR   IFR Intensif   IFR Très Intensif
Visi : 
Plafond : 
>= 8 km
>= 3000ft
5 à 8 km
1000 à 3000 ft
1500m à 5 km
500 à 1000 ft
800 à 1500m
200 à 500 ft
< 800m
< 200 ft
Symboles :   Orages  Brouillard  Fortes neiges  Fortes précipitations  Vent > 20 kt
SIGMETs :   Divers  Orages  Givrage  Turbulence  Onde Orograph.  Cendres Volcan.






- Altitude de l'aérodrome : 336 ft
- Code IATA : GCI


EGJB - Guernsey

DERNIER METAR :
  • 031050Z 22015KT 9999 FEW010 16/13 Q1021

METARs EXPIRÉS :
  • 031020Z 24017KT 9999 FEW011 SCT032 17/13 Q1021
  • 030950Z 23015KT 9999 FEW010 16/13 Q1021
  • 030920Z 23015KT 9999 SCT009 16/13 Q1021
  • 030850Z 23013KT 9999 SCT011 16/13 Q1020
  • 030820Z 24012KT 9999 FEW012 16/12 Q1020

TAF TAF EGJB
Valide du 03 à 09h jusqu'au 03 à 18h UTC


030756Z 0309/0318 26011KT 9999 FEW012 SCT018
PROB30
TEMPO 0309/0311 BKN012
BECMG 0311/0315 26021KT
ATIS : +44 1481 238 957



MET'MAP, la Météo Aéronautique d'un coup d'oeil ! - Copyright ORBIFLY Décembre 2007 - Disclaimer

ORBIFLY MET'MAP TEAM :

Programmation & Développement : Alexandra Zaïnal
Sur une idée originale de : Baudouin d'Aumeries
Assistance à la programmation : Marc-Olivier Méhu
Soutien technique & logistique : Manuel Goepfert

Contact : metmap@orbifly.com




SOURCES & CREDITS :

   NOAA